createdAt,value
2019-06-10T00:01:27.085Z,9.43
2019-06-10T00:04:05.129Z,12.70
2019-06-10T00:06:38.087Z,10.27
2019-06-10T00:09:11.745Z,7.57
2019-06-10T00:11:43.956Z,8.83
2019-06-10T00:14:15.920Z,6.73
2019-06-10T00:16:51.153Z,8.07
2019-06-10T00:19:22.711Z,8.73
2019-06-10T00:21:51.601Z,7.10
2019-06-10T00:24:22.643Z,5.30
2019-06-10T00:26:57.775Z,4.93
2019-06-10T00:29:32.547Z,6.53
2019-06-10T00:32:04.707Z,11.37
2019-06-10T00:34:34.904Z,10.07
2019-06-10T00:37:07.981Z,8.60
2019-06-10T00:39:36.567Z,7.10
2019-06-10T00:42:14.937Z,10.27
2019-06-10T00:44:43.052Z,8.73
2019-06-10T00:47:14.830Z,11.47
2019-06-10T00:49:43.597Z,10.97
2019-06-10T00:52:14.023Z,7.40
2019-06-10T00:54:45.895Z,9.57
2019-06-10T00:57:17.539Z,7.77
2019-06-10T00:59:50.791Z,9.90
2019-06-10T01:02:22.795Z,8.63
2019-06-10T01:04:54.762Z,8.40
2019-06-10T01:07:26.719Z,8.00
2019-06-10T01:10:02.784Z,9.63
2019-06-10T01:12:35.047Z,9.70
2019-06-10T01:15:12.552Z,9.63
2019-06-10T01:17:42.353Z,10.37
2019-06-10T01:20:15.678Z,8.83
2019-06-10T01:22:47.814Z,11.23
2019-06-10T01:25:22.642Z,9.73
2019-06-10T01:27:54.300Z,7.67
2019-06-10T01:30:27.272Z,10.80
2019-06-10T01:33:01.040Z,12.07
2019-06-10T01:35:31.725Z,12.27
2019-06-10T01:38:06.449Z,10.80
2019-06-10T01:40:35.544Z,11.30
2019-06-10T01:43:13.411Z,7.70
2019-06-10T01:45:41.780Z,8.53
2019-06-10T01:48:13.109Z,6.97
2019-06-10T01:50:42.573Z,11.23
2019-06-10T01:53:16.989Z,7.33
2019-06-10T01:55:45.268Z,9.40
2019-06-10T01:58:20.986Z,8.57
2019-06-10T02:01:08.336Z,7.73
2019-06-10T02:03:38.256Z,8.77
2019-06-10T02:06:08.780Z,8.77
2019-06-10T02:08:43.730Z,7.70
2019-06-10T02:11:18.759Z,11.30
2019-06-10T02:13:47.642Z,7.53
2019-06-10T02:16:24.091Z,8.10
2019-06-10T02:19:01.422Z,11.20
2019-06-10T02:21:35.308Z,6.63
2019-06-10T02:24:07.165Z,7.33
2019-06-10T02:26:40.924Z,8.37
2019-06-10T02:29:11.185Z,6.30
2019-06-10T02:31:45.660Z,5.60
2019-06-10T02:34:22.153Z,6.83
2019-06-10T02:36:49.031Z,7.40
2019-06-10T02:39:25.854Z,7.20
2019-06-10T02:41:53.530Z,6.17
2019-06-10T02:44:33.246Z,6.77
2019-06-10T02:47:03.154Z,6.33
2019-06-10T02:49:50.624Z,5.60
2019-06-10T02:52:04.595Z,6.03
2019-06-10T02:54:36.243Z,5.20
2019-06-10T02:57:29.486Z,7.07
2019-06-10T02:59:54.528Z,8.20
2019-06-10T03:02:30.015Z,6.70
2019-06-10T03:05:00.047Z,9.00
2019-06-10T03:07:35.956Z,9.33
2019-06-10T03:10:08.299Z,8.23
2019-06-10T03:12:38.207Z,7.93
2019-06-10T03:15:12.832Z,8.07
2019-06-10T03:17:47.559Z,7.43
2019-06-10T03:20:19.999Z,9.93
2019-06-10T03:22:54.867Z,7.73
2019-06-10T03:25:27.733Z,7.50
2019-06-10T03:27:59.406Z,5.67
2019-06-10T03:30:41.210Z,7.97
2019-06-10T03:32:58.726Z,7.60
2019-06-10T03:35:28.502Z,4.23
2019-06-10T03:38:00.291Z,8.10
2019-06-10T03:40:32.673Z,9.67
2019-06-10T03:43:03.400Z,7.60
2019-06-10T03:45:38.330Z,5.73
2019-06-10T03:48:13.179Z,9.13
2019-06-10T03:50:47.884Z,8.70
2019-06-10T03:53:17.270Z,10.57
2019-06-10T03:55:47.302Z,7.37
2019-06-10T03:58:17.469Z,10.77
2019-06-10T04:00:52.463Z,7.67
2019-06-10T04:03:28.114Z,7.40
2019-06-10T04:06:03.753Z,8.60
2019-06-10T04:08:35.307Z,8.87
2019-06-10T04:11:04.302Z,8.90
2019-06-10T04:13:33.774Z,6.90
2019-06-10T04:16:03.825Z,4.70
2019-06-10T04:18:33.617Z,8.23
2019-06-10T04:21:04.656Z,8.23
2019-06-10T04:23:36.332Z,6.73
2019-06-10T04:26:12.817Z,7.07
2019-06-10T04:28:44.867Z,6.07
2019-06-10T04:31:16.310Z,8.80
2019-06-10T04:33:48.170Z,6.13
2019-06-10T04:36:21.002Z,4.93
2019-06-10T04:38:53.840Z,8.20
2019-06-10T04:41:26.491Z,8.53
2019-06-10T04:44:02.592Z,7.77
2019-06-10T04:46:34.744Z,5.83
2019-06-10T04:49:09.468Z,8.87
2019-06-10T04:51:39.292Z,7.20
2019-06-10T04:54:14.213Z,8.17
2019-06-10T04:56:45.871Z,6.43
2019-06-10T04:59:18.762Z,8.03
2019-06-10T05:01:52.889Z,5.63
2019-06-10T05:04:26.551Z,6.57
2019-06-10T05:06:54.721Z,6.60
2019-06-10T05:09:27.870Z,4.00
2019-06-10T05:11:57.745Z,9.93
2019-06-10T05:14:33.364Z,6.40
2019-06-10T05:17:12.714Z,9.53
2019-06-10T05:19:44.589Z,5.20
2019-06-10T05:22:19.595Z,5.33
2019-06-10T05:24:48.717Z,7.53
2019-06-10T05:27:19.850Z,7.17
2019-06-10T05:29:49.267Z,7.97
2019-06-10T05:32:20.807Z,3.87
2019-06-10T05:34:52.932Z,3.57
2019-06-10T05:37:29.274Z,5.20
2019-06-10T05:40:06.259Z,5.20
2019-06-10T05:42:36.168Z,4.50
2019-06-10T05:45:12.300Z,5.13
2019-06-10T05:47:47.233Z,7.03
2019-06-10T05:50:29.230Z,5.07
2019-06-10T05:53:03.959Z,8.60
2019-06-10T05:55:35.460Z,8.77
2019-06-10T05:58:12.789Z,8.83
2019-06-10T06:00:43.736Z,5.10
2019-06-10T06:03:13.650Z,5.50
2019-06-10T06:05:48.588Z,7.00
2019-06-10T06:08:19.982Z,7.70
2019-06-10T06:10:52.736Z,6.13
2019-06-10T06:13:47.714Z,6.73
2019-06-10T06:16:22.818Z,5.67
2019-06-10T06:18:53.891Z,5.50
2019-06-10T06:21:32.439Z,5.03
2019-06-10T06:23:59.147Z,7.80
2019-06-10T06:26:37.599Z,6.93
2019-06-10T06:29:05.433Z,4.40
2019-06-10T06:31:37.751Z,4.90
2019-06-10T06:34:07.027Z,5.23
2019-06-10T06:36:37.034Z,3.80
2019-06-10T06:39:08.400Z,5.27
2019-06-10T06:41:42.453Z,7.33
2019-06-10T06:44:13.329Z,6.40
2019-06-10T06:46:48.140Z,8.83
2019-06-10T06:49:23.190Z,8.63
2019-06-10T06:51:58.288Z,5.20
2019-06-10T06:54:23.054Z,6.87
2019-06-10T06:56:53.395Z,7.43
2019-06-10T06:59:25.085Z,5.40
2019-06-10T07:02:02.622Z,6.53
2019-06-10T07:04:34.283Z,5.80
2019-06-10T07:07:04.975Z,7.30
2019-06-10T07:09:37.464Z,5.30
2019-06-10T07:12:07.048Z,8.37
2019-06-10T07:14:58.977Z,6.80
2019-06-10T07:17:27.852Z,8.80
2019-06-10T07:19:59.318Z,5.13
2019-06-10T07:22:36.517Z,3.63
2019-06-10T07:25:07.218Z,4.57
2019-06-10T07:27:41.162Z,3.47
2019-06-10T07:30:12.597Z,7.43
2019-06-10T07:32:44.977Z,3.90
2019-06-10T07:35:12.991Z,6.47
2019-06-10T07:37:47.662Z,9.00
2019-06-10T07:40:22.492Z,3.63
2019-06-10T07:42:54.045Z,8.67
2019-06-10T07:45:26.011Z,4.70
2019-06-10T07:47:57.947Z,5.13
2019-06-10T07:50:29.523Z,4.77
2019-06-10T07:52:58.414Z,5.57
2019-06-10T07:55:32.775Z,4.40
2019-06-10T07:58:02.509Z,4.63
2019-06-10T08:00:38.934Z,5.60
2019-06-10T08:03:08.822Z,16.87
2019-06-10T08:05:37.815Z,6.27
2019-06-10T08:08:06.707Z,4.23
2019-06-10T08:10:36.826Z,6.43
2019-06-10T08:13:05.921Z,7.27
2019-06-10T08:15:39.692Z,4.83
2019-06-10T08:18:14.535Z,5.90
2019-06-10T08:20:47.665Z,4.23
2019-06-10T08:23:19.277Z,4.40
2019-06-10T08:25:57.633Z,7.53
2019-06-10T08:28:26.401Z,3.80
2019-06-10T08:31:12.364Z,7.40
2019-06-10T08:33:44.332Z,4.53
2019-06-10T08:36:13.576Z,8.13
2019-06-10T08:38:48.834Z,8.50
2019-06-10T08:41:23.585Z,14.60
2019-06-10T08:43:55.578Z,9.60
2019-06-10T08:46:25.347Z,4.50
2019-06-10T08:48:54.135Z,5.40
2019-06-10T08:51:23.845Z,4.40
2019-06-10T08:53:53.294Z,5.27
2019-06-10T08:56:22.524Z,4.47
2019-06-10T08:58:53.861Z,4.57
2019-06-10T09:01:27.744Z,5.77
2019-06-10T09:04:03.139Z,7.27
2019-06-10T09:06:32.928Z,5.73
2019-06-10T09:09:03.123Z,6.53
2019-06-10T09:11:32.841Z,6.17
2019-06-10T09:14:02.598Z,4.67
2019-06-10T09:16:32.408Z,4.60
2019-06-10T09:19:02.269Z,4.93
2019-06-10T09:21:36.984Z,3.80
2019-06-10T09:24:05.772Z,3.73
2019-06-10T09:26:39.938Z,5.90
2019-06-10T09:29:13.328Z,6.53
2019-06-10T09:31:45.606Z,6.37
2019-06-10T09:34:14.968Z,4.43
2019-06-10T09:36:47.980Z,4.40
2019-06-10T09:39:17.044Z,3.87
2019-06-10T09:42:00.302Z,6.00
2019-06-10T09:44:29.877Z,4.90
2019-06-10T09:47:03.344Z,8.93
2019-06-10T09:49:35.218Z,7.17
2019-06-10T09:52:07.188Z,5.33
2019-06-10T09:54:36.278Z,5.03
2019-06-10T09:57:05.290Z,6.27
2019-06-10T09:59:34.386Z,4.80
2019-06-10T10:02:06.406Z,4.53
2019-06-10T10:04:42.274Z,5.30
2019-06-10T10:07:17.341Z,3.73
2019-06-10T10:09:57.039Z,8.00
2019-06-10T10:12:23.867Z,10.90
2019-06-10T10:14:56.128Z,9.50
2019-06-10T10:17:23.339Z,6.40
2019-06-10T10:19:56.936Z,6.63
2019-06-10T10:22:25.229Z,7.20
2019-06-10T10:24:56.705Z,10.13
2019-06-10T10:27:32.335Z,8.13
2019-06-10T10:30:07.746Z,9.70
2019-06-10T10:32:39.417Z,10.53
2019-06-10T10:35:09.478Z,8.23
2019-06-10T10:37:55.463Z,10.77
2019-06-10T10:40:26.827Z,8.97
2019-06-10T10:43:10.090Z,8.67
2019-06-10T10:45:26.787Z,8.57
2019-06-10T10:48:02.551Z,9.43
2019-06-10T10:50:33.964Z,11.67
2019-06-10T10:53:03.450Z,11.37
2019-06-10T10:55:33.342Z,10.10
2019-06-10T10:58:03.156Z,12.10
2019-06-10T11:00:46.853Z,10.93
2019-06-10T11:03:16.009Z,9.80
2019-06-10T11:05:47.802Z,9.93
2019-06-10T11:08:15.291Z,14.53
2019-06-10T11:10:45.892Z,13.37
2019-06-10T11:13:18.179Z,22.07
2019-06-10T11:15:47.344Z,13.93
2019-06-10T11:18:16.231Z,11.33
2019-06-10T11:20:45.307Z,11.23
2019-06-10T11:23:14.400Z,12.40
2019-06-10T11:25:43.258Z,10.63
2019-06-10T11:28:12.103Z,12.07
2019-06-10T11:30:42.620Z,16.67
2019-06-10T11:33:11.567Z,36.07
2019-06-10T11:35:46.776Z,22.77
2019-06-10T11:38:15.796Z,17.03
2019-06-10T11:40:47.356Z,15.80
2019-06-10T11:43:16.343Z,19.47
2019-06-10T11:45:52.343Z,21.13
2019-06-10T11:48:20.475Z,32.70
2019-06-10T11:50:56.716Z,17.07
2019-06-10T11:53:28.924Z,11.47
2019-06-10T11:55:58.019Z,10.03
2019-06-10T11:58:29.552Z,9.57
2019-06-10T12:01:00.198Z,6.23
2019-06-10T12:03:28.968Z,11.37
2019-06-10T12:06:00.750Z,7.03
2019-06-10T12:08:28.514Z,9.67
2019-06-10T12:11:02.281Z,12.17
2019-06-10T12:13:33.847Z,8.07
2019-06-10T12:18:34.906Z,10.70
2019-06-10T12:21:13.253Z,7.37
2019-06-10T12:23:43.423Z,6.83
2019-06-10T12:26:15.145Z,9.03
2019-06-10T12:28:44.204Z,9.70
2019-06-10T12:31:13.749Z,6.70
2019-06-10T12:33:42.743Z,8.73
2019-06-10T12:36:12.797Z,11.63
2019-06-10T12:38:43.419Z,9.50
2019-06-10T12:41:13.902Z,9.90
2019-06-10T12:43:43.485Z,10.40
2019-06-10T12:46:13.446Z,9.33
2019-06-10T12:48:42.794Z,10.47
2019-06-10T12:51:13.498Z,9.13
2019-06-10T12:53:43.147Z,8.37
2019-06-10T12:56:14.889Z,9.67
2019-06-10T12:58:43.874Z,8.63
2019-06-10T13:01:15.693Z,7.43
2019-06-10T13:03:52.505Z,7.87
2019-06-10T13:06:24.309Z,9.03
2019-06-10T13:09:02.240Z,7.47
2019-06-10T13:11:36.184Z,7.37
2019-06-10T13:14:06.756Z,8.83
2019-06-10T13:16:39.596Z,7.17
2019-06-10T13:19:12.577Z,8.53
2019-06-10T13:21:45.364Z,7.63
2019-06-10T13:24:15.178Z,8.40
2019-06-10T13:26:52.250Z,7.40
2019-06-10T13:29:20.739Z,7.53
2019-06-10T13:31:52.879Z,7.90
2019-06-10T13:34:24.384Z,7.53
2019-06-10T13:36:56.712Z,8.27
2019-06-10T13:39:28.589Z,6.60
2019-06-10T13:41:57.701Z,7.07
2019-06-10T13:44:31.842Z,11.57
2019-06-10T13:47:02.080Z,9.83
2019-06-10T13:49:33.086Z,8.73
2019-06-10T13:52:07.959Z,6.83
2019-06-10T13:54:35.350Z,9.03
2019-06-10T13:57:06.903Z,9.80
2019-06-10T13:59:34.867Z,11.93
2019-06-10T14:02:08.622Z,11.17
2019-06-10T14:04:42.519Z,10.23
2019-06-10T14:07:16.877Z,9.60
2019-06-10T14:09:41.786Z,11.63
2019-06-10T14:12:16.614Z,8.30
2019-06-10T14:14:46.759Z,7.80
2019-06-10T14:17:19.696Z,10.50
2019-06-10T14:19:49.751Z,10.03
2019-06-10T14:22:18.522Z,12.00
2019-06-10T14:24:47.431Z,9.17
2019-06-10T14:27:20.544Z,9.77
2019-06-10T14:29:47.872Z,8.80
2019-06-10T14:32:22.804Z,10.63
2019-06-10T14:34:52.679Z,11.17
2019-06-10T14:37:38.083Z,11.03
2019-06-10T14:40:03.495Z,9.80
2019-06-10T14:42:33.832Z,13.03
2019-06-10T14:45:11.363Z,9.87
2019-06-10T14:47:42.997Z,8.53
2019-06-10T14:50:15.338Z,8.53
2019-06-10T14:52:43.521Z,8.93
2019-06-10T14:55:16.633Z,10.00
2019-06-10T14:57:43.452Z,9.40
2019-06-10T15:00:17.948Z,9.33
2019-06-10T15:02:53.837Z,9.27
2019-06-10T15:05:23.237Z,7.50
2019-06-10T15:07:52.904Z,9.43
2019-06-10T15:10:23.724Z,9.13
2019-06-10T15:12:52.912Z,7.27
2019-06-10T15:15:24.730Z,10.00
2019-06-10T15:17:57.798Z,8.50
2019-06-10T15:20:32.978Z,8.13
2019-06-10T15:23:01.951Z,8.33
2019-06-10T15:25:48.667Z,10.20
2019-06-10T15:28:03.523Z,7.63
2019-06-10T15:30:38.243Z,9.10
2019-06-10T15:33:14.703Z,8.80
2019-06-10T15:35:46.162Z,9.27
2019-06-10T15:38:22.889Z,9.47
2019-06-10T15:40:53.083Z,10.37
2019-06-10T15:43:23.641Z,10.73
2019-06-10T15:45:53.687Z,8.77
2019-06-10T15:48:25.772Z,9.07
2019-06-10T15:50:54.663Z,10.77
2019-06-10T15:53:25.867Z,10.40
2019-06-10T15:56:13.148Z,9.87
2019-06-10T15:58:26.202Z,9.53
2019-06-10T16:00:55.345Z,9.87
2019-06-10T16:03:25.841Z,10.73
2019-06-10T16:05:57.938Z,8.77
2019-06-10T16:08:27.692Z,10.67
2019-06-10T16:10:56.636Z,8.93
2019-06-10T16:13:28.438Z,11.17
2019-06-10T16:16:03.412Z,11.03
2019-06-10T16:18:32.973Z,8.70
2019-06-10T16:21:04.689Z,10.50
2019-06-10T16:23:38.404Z,12.07
2019-06-10T16:26:12.374Z,11.20
2019-06-10T16:28:47.063Z,8.53
2019-06-10T16:31:37.016Z,8.80
2019-06-10T16:34:05.905Z,10.43
2019-06-10T16:36:37.355Z,8.27
2019-06-10T16:39:09.198Z,11.03
2019-06-10T16:41:38.208Z,10.90
2019-06-10T16:44:09.763Z,8.70
2019-06-10T16:46:44.695Z,13.13
2019-06-10T16:49:14.451Z,9.20
2019-06-10T16:51:49.132Z,10.73
2019-06-10T16:54:23.565Z,10.53
2019-06-10T16:56:52.304Z,10.13
2019-06-10T16:59:24.255Z,25.07
2019-06-10T17:01:57.901Z,13.87
2019-06-10T17:04:30.760Z,11.67
2019-06-10T17:07:06.332Z,9.80
2019-06-10T17:09:37.243Z,10.47
2019-06-10T17:12:09.335Z,9.93
2019-06-10T17:14:43.882Z,11.20
2019-06-10T17:17:25.169Z,13.87
2019-06-10T17:19:56.953Z,13.27
2019-06-10T17:22:27.368Z,12.10
2019-06-10T17:24:58.834Z,11.97
2019-06-10T17:27:32.730Z,13.23
2019-06-10T17:30:02.852Z,17.57
2019-06-10T17:32:34.564Z,13.07
2019-06-10T17:35:06.212Z,13.90
2019-06-10T17:37:37.628Z,14.20
2019-06-10T17:40:10.318Z,14.07
2019-06-10T17:42:42.832Z,15.03
2019-06-10T17:45:18.235Z,14.63
2019-06-10T17:47:49.673Z,14.07
2019-06-10T17:50:18.671Z,13.40
2019-06-10T17:52:47.526Z,13.97
2019-06-10T17:55:16.335Z,12.47
2019-06-10T17:57:47.478Z,13.13
2019-06-10T18:00:15.726Z,14.10
2019-06-10T18:02:44.540Z,14.10
2019-06-10T18:05:13.380Z,13.27
2019-06-10T18:07:42.374Z,15.73
2019-06-10T18:10:13.213Z,16.47
2019-06-10T18:12:47.833Z,15.23
2019-06-10T18:15:22.459Z,15.27
2019-06-10T18:17:52.469Z,12.33
2019-06-10T18:20:22.752Z,14.07
2019-06-10T18:22:53.531Z,17.00
2019-06-10T18:25:26.506Z,15.37
2019-06-10T18:27:55.498Z,15.73
2019-06-10T18:30:27.292Z,17.37
2019-06-10T18:33:02.949Z,18.57
2019-06-10T18:35:37.483Z,18.57
2019-06-10T18:38:12.703Z,15.10
2019-06-10T18:40:47.814Z,15.93
2019-06-10T18:43:18.306Z,13.17
2019-06-10T18:45:47.323Z,18.60
2019-06-10T18:48:19.196Z,6.63
2019-06-10T18:50:53.754Z,4.63
2019-06-10T18:53:23.755Z,4.80
2019-06-10T18:55:54.907Z,6.40
2019-06-10T18:58:30.035Z,3.43
2019-06-10T19:01:03.992Z,3.70
2019-06-10T19:03:30.521Z,5.80
2019-06-10T19:05:59.439Z,3.80
2019-06-10T19:08:35.958Z,4.23
2019-06-10T19:11:05.476Z,4.50
2019-06-10T19:13:35.942Z,4.33
2019-06-10T19:16:12.753Z,4.47
2019-06-10T19:18:43.483Z,3.90
2019-06-10T19:21:12.995Z,3.93
2019-06-10T19:23:48.310Z,3.33
2019-06-10T19:26:19.145Z,3.33
2019-06-10T19:28:56.692Z,3.33
2019-06-10T19:31:24.487Z,3.57
2019-06-10T19:33:56.448Z,4.07
2019-06-10T19:36:31.498Z,4.07
2019-06-10T19:39:02.318Z,3.50
2019-06-10T19:41:33.236Z,4.87
2019-06-10T19:44:03.278Z,4.77
2019-06-10T19:46:35.712Z,3.63
2019-06-10T19:49:07.261Z,2.67
2019-06-10T19:51:37.305Z,2.80
2019-06-10T19:54:12.817Z,3.23
2019-06-10T19:56:41.979Z,3.13
2019-06-10T19:59:12.838Z,2.70
2019-06-10T20:01:45.862Z,2.70
2019-06-10T20:04:15.629Z,4.17
2019-06-10T20:06:50.826Z,4.63
2019-06-10T20:09:22.636Z,3.53
2019-06-10T20:11:58.259Z,2.83
2019-06-10T20:14:27.071Z,3.47
2019-06-10T20:16:55.948Z,3.37
2019-06-10T20:19:27.742Z,6.27
2019-06-10T20:21:56.789Z,4.13
2019-06-10T20:24:28.445Z,3.53
2019-06-10T20:26:59.997Z,4.10
2019-06-10T20:29:32.853Z,3.90
2019-06-10T20:32:01.382Z,4.20
2019-06-10T20:34:32.834Z,5.30
2019-06-10T20:37:02.448Z,4.30
2019-06-10T20:39:32.950Z,4.93
2019-06-10T20:42:02.700Z,4.60
2019-06-10T20:44:32.587Z,5.17
2019-06-10T20:47:02.536Z,5.57
2019-06-10T20:49:33.982Z,5.93
2019-06-10T20:52:11.183Z,6.03
2019-06-10T20:54:35.230Z,6.53
2019-06-10T20:57:04.309Z,6.97
2019-06-10T20:59:33.361Z,6.80
2019-06-10T21:02:04.243Z,7.47
2019-06-10T21:04:36.031Z,7.03
2019-06-10T21:07:04.859Z,6.27
2019-06-10T21:09:42.009Z,6.40
2019-06-10T21:12:14.243Z,7.00
2019-06-10T21:14:45.348Z,6.20
2019-06-10T21:17:13.471Z,6.23
2019-06-10T21:19:44.368Z,7.13
2019-06-10T21:22:13.022Z,6.10
2019-06-10T21:24:42.514Z,6.27
2019-06-10T21:27:12.697Z,5.87
2019-06-10T21:29:44.041Z,6.10
2019-06-10T21:32:12.453Z,5.87
2019-06-10T21:34:44.872Z,6.33
2019-06-10T21:37:14.203Z,6.43
2019-06-10T21:39:44.769Z,6.50
2019-06-10T21:42:13.618Z,7.13
2019-06-10T21:44:43.840Z,8.67
2019-06-10T21:47:13.064Z,7.80
2019-06-10T21:49:42.767Z,6.13
2019-06-10T21:52:13.682Z,7.13
2019-06-10T21:54:46.688Z,6.63
2019-06-10T21:57:15.965Z,4.43
2019-06-10T21:59:45.563Z,3.87
2019-06-10T22:02:14.802Z,4.47
2019-06-10T22:04:44.799Z,5.37
2019-06-10T22:07:14.117Z,3.57
2019-06-10T22:09:44.078Z,3.93
2019-06-10T22:12:13.102Z,5.80
2019-06-10T22:14:48.326Z,4.07
2019-06-10T22:17:22.953Z,3.00
2019-06-10T22:19:56.414Z,3.93
2019-06-10T22:22:27.741Z,3.17
2019-06-10T22:24:57.005Z,2.73
2019-06-10T22:27:25.850Z,3.77
2019-06-10T22:29:56.998Z,3.07
2019-06-10T22:32:25.166Z,2.33
2019-06-10T22:34:55.511Z,5.17
2019-06-10T22:37:24.452Z,5.53
2019-06-10T22:39:55.007Z,3.23
2019-06-10T22:42:23.709Z,3.47
2019-06-10T22:45:00.111Z,2.33
2019-06-10T22:47:34.962Z,3.23
2019-06-10T22:50:07.911Z,3.63
2019-06-10T22:52:39.434Z,2.80
2019-06-10T22:55:08.715Z,1.73
2019-06-10T22:57:37.563Z,1.83
2019-06-10T23:00:12.959Z,4.23
2019-06-10T23:02:43.724Z,2.20
2019-06-10T23:05:18.452Z,3.60
2019-06-10T23:07:53.231Z,1.50
2019-06-10T23:10:22.995Z,2.00
2019-06-10T23:12:56.539Z,2.03
2019-06-10T23:15:24.886Z,2.33
2019-06-10T23:17:57.467Z,2.80
2019-06-10T23:20:26.710Z,1.80
2019-06-10T23:22:57.223Z,2.53
2019-06-10T23:25:26.070Z,2.33
2019-06-10T23:27:58.161Z,3.10
2019-06-10T23:30:27.983Z,1.60
2019-06-10T23:32:58.137Z,2.13
2019-06-10T23:35:47.694Z,5.53
2019-06-10T23:38:16.643Z,1.70
2019-06-10T23:40:48.604Z,4.20
2019-06-10T23:43:22.330Z,3.77
2019-06-10T23:45:57.165Z,3.43
2019-06-10T23:48:26.149Z,1.80
2019-06-10T23:50:57.343Z,3.77
2019-06-10T23:53:26.573Z,2.67
2019-06-10T23:55:58.228Z,2.00
2019-06-10T23:58:28.145Z,6.93
